Time;durP1;ratioP1;P1;durP2;ratioP2;P2;SDS_P1;SDS_P2;PMS_P1;PMS_P2;Temp;Humidity;BMP_temperature;BMP_pressure;BME280_temperature;BME280_humidity;BME280_pressure;Samples;Min_cycle;Max_cycle;Signal;HPM_P1;HPM_P2
2023/11/21 00:00:03;;;;;;;58.07;3.07;;;;;;;;;;5052717;28;20450;-71
2023/11/21 00:02:31;;;;;;;55.80;2.13;;;;;;;;;;5053038;28;20525;-72
2023/11/21 00:04:58;;;;;;;55.47;2.33;;;;;;;;;;5052831;28;20450;-71
2023/11/21 00:07:25;;;;;;;56.10;2.50;;;;;;;;;;5053253;28;20480;-71
2023/11/21 00:09:52;;;;;;;56.30;2.70;;;;;;;;;;5053295;28;20466;-72
2023/11/21 00:12:20;;;;;;;56.20;2.40;;;;;;;;;;5052701;28;20494;-71
2023/11/21 00:14:48;;;;;;;56.33;2.67;;;;;;;;;;5052864;28;20490;-72
2023/11/21 00:17:16;;;;;;;55.37;2.40;;;;;;;;;;5052759;28;20450;-72
2023/11/21 00:19:43;;;;;;;55.73;2.47;;;;;;;;;;5052822;28;20451;-71
2023/11/21 00:22:10;;;;;;;55.87;2.43;;;;;;;;;;5052579;28;20490;-71
2023/11/21 00:24:37;;;;;;;57.90;3.00;;;;;;;;;;5052306;28;20458;-71
2023/11/21 00:27:05;;;;;;;55.60;2.40;;;;;;;;;;5052732;28;20763;-71
2023/11/21 00:29:33;;;;;;;55.77;2.50;;;;;;;;;;5052570;28;20454;-71
2023/11/21 00:32:01;;;;;;;55.80;2.37;;;;;;;;;;5052492;28;20491;-71
2023/11/21 00:34:28;;;;;;;55.57;2.50;;;;;;;;;;5052251;28;20443;-71
2023/11/21 00:36:55;;;;;;;55.87;2.10;;;;;;;;;;5052326;28;20450;-71
2023/11/21 00:39:22;;;;;;;55.80;2.57;;;;;;;;;;5052324;28;20469;-71
2023/11/21 00:41:49;;;;;;;55.80;2.17;;;;;;;;;;5052509;28;20493;-71
2023/11/21 00:44:17;;;;;;;56.07;2.30;;;;;;;;;;5052798;28;20477;-71
2023/11/21 00:46:44;;;;;;;55.80;2.20;;;;;;;;;;5052754;28;20454;-71
2023/11/21 00:49:13;;;;;;;55.90;2.37;;;;;;;;;;5052476;28;20450;-71
2023/11/21 00:51:40;;;;;;;55.90;2.30;;;;;;;;;;5044320;28;20969;-72
2023/11/21 00:54:07;;;;;;;55.77;2.40;;;;;;;;;;5052271;28;20450;-72
2023/11/21 00:56:35;;;;;;;55.90;2.40;;;;;;;;;;5052180;28;20450;-71
2023/11/21 00:59:02;;;;;;;55.90;2.20;;;;;;;;;;5052069;28;20450;-71
2023/11/21 01:01:29;;;;;;;56.03;2.57;;;;;;;;;;5051913;28;20493;-72
2023/11/21 01:03:56;;;;;;;55.77;2.30;;;;;;;;;;5051772;28;20891;-72
2023/11/21 01:06:24;;;;;;;55.97;2.10;;;;;;;;;;5051820;28;20447;-71
2023/11/21 01:08:52;;;;;;;55.90;2.23;;;;;;;;;;5051761;28;20546;-71
2023/11/21 01:11:19;;;;;;;55.60;2.20;;;;;;;;;;5051129;28;20466;-71
2023/11/21 01:13:46;;;;;;;55.93;2.33;;;;;;;;;;5051704;28;20447;-71
2023/11/21 01:16:13;;;;;;;55.97;2.50;;;;;;;;;;5051621;28;20447;-71
2023/11/21 01:18:41;;;;;;;55.67;2.30;;;;;;;;;;5051260;28;20447;-71
2023/11/21 01:21:08;;;;;;;56.47;2.63;;;;;;;;;;5051602;28;20471;-71
2023/11/21 01:23:37;;;;;;;55.47;2.37;;;;;;;;;;5051684;28;20521;-71
2023/11/21 01:26:04;;;;;;;55.47;2.40;;;;;;;;;;5051497;28;20454;-71
2023/11/21 01:28:32;;;;;;;55.47;2.20;;;;;;;;;;5051400;28;20530;-71
2023/11/21 01:30:59;;;;;;;56.00;2.30;;;;;;;;;;5051220;28;20475;-71
2023/11/21 01:33:26;;;;;;;56.13;2.30;;;;;;;;;;5051014;28;20450;-71
2023/11/21 01:35:54;;;;;;;55.60;2.77;;;;;;;;;;5051462;28;20463;-71
2023/11/21 01:38:21;;;;;;;55.90;2.33;;;;;;;;;;5051217;28;20453;-71
2023/11/21 01:40:50;;;;;;;55.47;2.40;;;;;;;;;;5051208;28;20513;-71
2023/11/21 01:43:17;;;;;;;55.83;2.10;;;;;;;;;;5050830;28;20513;-71
2023/11/21 01:45:45;;;;;;;56.10;2.47;;;;;;;;;;5051014;28;20451;-71
2023/11/21 01:48:13;;;;;;;56.00;2.30;;;;;;;;;;5051214;28;20447;-71
2023/11/21 01:50:40;;;;;;;55.87;2.20;;;;;;;;;;5043120;28;20447;-71
2023/11/21 01:53:07;;;;;;;55.37;2.27;;;;;;;;;;5051065;28;20446;-71
2023/11/21 01:55:35;;;;;;;55.90;2.20;;;;;;;;;;5050979;28;20450;-71
2023/11/21 01:58:03;;;;;;;55.47;2.20;;;;;;;;;;5051089;28;20447;-71
2023/11/21 02:00:31;;;;;;;56.10;2.30;;;;;;;;;;5050996;28;20476;-71
2023/11/21 02:02:59;;;;;;;56.00;2.20;;;;;;;;;;5050974;28;20491;-71
2023/11/21 02:05:26;;;;;;;55.90;2.50;;;;;;;;;;5050918;28;20458;-72
2023/11/21 02:07:53;;;;;;;55.07;2.60;;;;;;;;;;5051143;28;20528;-71
2023/11/21 02:10:22;;;;;;;55.80;2.30;;;;;;;;;;5050498;28;20966;-71
2023/11/21 02:12:51;;;;;;;56.00;2.30;;;;;;;;;;5050735;28;20561;-72
2023/11/21 02:15:20;;;;;;;56.73;2.27;;;;;;;;;;5050967;28;20454;-72
2023/11/21 02:17:50;;;;;;;55.73;2.10;;;;;;;;;;5051003;28;20451;-72
2023/11/21 02:20:18;;;;;;;55.70;2.30;;;;;;;;;;5050658;28;20943;-71
2023/11/21 02:22:46;;;;;;;55.50;2.20;;;;;;;;;;5053803;28;20513;-71
2023/11/21 02:25:14;;;;;;;55.97;2.03;;;;;;;;;;5054737;28;20461;-71
2023/11/21 02:27:43;;;;;;;55.60;2.20;;;;;;;;;;5054315;28;20451;-71
2023/11/21 02:30:13;;;;;;;55.77;2.37;;;;;;;;;;5054772;28;20830;-72
2023/11/21 02:32:42;;;;;;;55.77;2.27;;;;;;;;;;5054239;28;21027;-72
2023/11/21 02:35:12;;;;;;;55.60;2.10;;;;;;;;;;5054809;28;20474;-72
2023/11/21 02:37:40;;;;;;;55.83;1.90;;;;;;;;;;5054796;28;20450;-71
2023/11/21 02:40:09;;;;;;;55.50;2.17;;;;;;;;;;5054563;28;20456;-71
2023/11/21 02:42:38;;;;;;;55.80;2.00;;;;;;;;;;5054222;28;20498;-72
2023/11/21 02:45:05;;;;;;;55.77;2.20;;;;;;;;;;5054710;28;20788;-71
2023/11/21 02:47:33;;;;;;;55.90;2.27;;;;;;;;;;5054522;28;20508;-71
2023/11/21 02:50:00;;;;;;;55.80;2.27;;;;;;;;;;5054729;28;20450;-72
2023/11/21 02:52:27;;;;;;;55.33;2.23;;;;;;;;;;5054520;28;20458;-72
2023/11/21 02:54:54;;;;;;;55.23;2.33;;;;;;;;;;5054365;28;20453;-72
2023/11/21 02:57:21;;;;;;;55.97;2.23;;;;;;;;;;5054510;28;20874;-72
2023/11/21 02:59:50;;;;;;;55.50;2.00;;;;;;;;;;5053999;28;20814;-72
2023/11/21 03:05:21;;;;;;;56.00;2.13;;;;;;;;;;5054294;28;20905;-72
2023/11/21 03:07:48;;;;;;;55.67;2.40;;;;;;;;;;5054235;28;20820;-72
2023/11/21 03:10:15;;;;;;;55.67;2.20;;;;;;;;;;5053845;28;20465;-72
2023/11/21 03:12:42;;;;;;;55.80;2.33;;;;;;;;;;5053891;28;20458;-72
2023/11/21 03:15:11;;;;;;;55.87;2.23;;;;;;;;;;5053919;28;20830;-72
2023/11/21 03:17:38;;;;;;;55.67;2.33;;;;;;;;;;5054013;28;20973;-72
2023/11/21 03:20:10;;;;;;;55.60;2.03;;;;;;;;;;5053915;28;20442;-72
2023/11/21 03:22:38;;;;;;;55.77;2.50;;;;;;;;;;5053671;28;20544;-72
2023/11/21 03:25:05;;;;;;;55.90;1.97;;;;;;;;;;5054009;28;20451;-72
2023/11/21 03:27:32;;;;;;;55.80;2.10;;;;;;;;;;5053751;28;20457;-72
2023/11/21 03:29:59;;;;;;;55.80;2.20;;;;;;;;;;5054078;28;20461;-72
2023/11/21 03:32:28;;;;;;;55.60;2.40;;;;;;;;;;5053494;28;20471;-71
2023/11/21 03:34:57;;;;;;;55.17;2.13;;;;;;;;;;5053318;28;20960;-72
2023/11/21 03:37:24;;;;;;;55.70;2.20;;;;;;;;;;5053699;28;20490;-72
2023/11/21 03:39:51;;;;;;;55.73;2.30;;;;;;;;;;5053783;28;20446;-72
2023/11/21 03:42:18;;;;;;;55.70;2.20;;;;;;;;;;5053489;28;20490;-72
2023/11/21 03:44:45;;;;;;;55.80;1.93;;;;;;;;;;5053239;28;20455;-72
2023/11/21 03:47:13;;;;;;;55.77;2.23;;;;;;;;;;5053976;28;20920;-72
2023/11/21 03:49:41;;;;;;;55.67;2.03;;;;;;;;;;5053360;28;20459;-72
2023/11/21 03:52:09;;;;;;;55.53;2.13;;;;;;;;;;5053329;28;20466;-72
2023/11/21 03:54:37;;;;;;;55.83;1.90;;;;;;;;;;5053588;28;20909;-72
2023/11/21 03:57:04;;;;;;;55.70;2.00;;;;;;;;;;5053493;28;20496;-72
2023/11/21 03:59:31;;;;;;;55.50;1.60;;;;;;;;;;5052924;28;20451;-72
2023/11/21 04:01:58;;;;;;;55.60;2.07;;;;;;;;;;5053076;28;20994;-72
2023/11/21 04:04:25;;;;;;;55.27;1.90;;;;;;;;;;5052927;28;20958;-72
2023/11/21 04:06:54;;;;;;;55.60;2.10;;;;;;;;;;5052908;28;20954;-72
2023/11/21 04:09:23;;;;;;;55.47;1.87;;;;;;;;;;5052852;28;20458;-72
2023/11/21 04:11:51;;;;;;;55.43;1.90;;;;;;;;;;5052963;28;20911;-72
2023/11/21 04:14:18;;;;;;;55.33;1.73;;;;;;;;;;5052650;28;20444;-72
2023/11/21 04:16:45;;;;;;;55.53;1.90;;;;;;;;;;5052941;28;20435;-69
2023/11/21 04:19:14;;;;;;;55.80;2.13;;;;;;;;;;5052859;28;20453;-70
2023/11/21 04:21:41;;;;;;;55.40;2.13;;;;;;;;;;5052634;28;20475;-70
2023/11/21 04:24:10;;;;;;;56.03;2.27;;;;;;;;;;5052635;28;20847;-71
2023/11/21 04:26:37;;;;;;;80.57;2.93;;;;;;;;;;5052434;28;20455;-71
2023/11/21 04:29:05;;;;;;;55.70;2.10;;;;;;;;;;5052444;28;20453;-70
2023/11/21 04:31:32;;;;;;;55.77;2.20;;;;;;;;;;5052864;28;20877;-71
2023/11/21 04:33:59;;;;;;;55.90;2.27;;;;;;;;;;5052748;28;20446;-71
2023/11/21 04:36:26;;;;;;;55.80;2.17;;;;;;;;;;5052334;28;20457;-71
2023/11/21 04:38:53;;;;;;;55.53;2.00;;;;;;;;;;5052468;28;20451;-71
2023/11/21 04:41:22;;;;;;;55.87;2.40;;;;;;;;;;5052096;28;20474;-70
2023/11/21 04:43:50;;;;;;;55.90;2.20;;;;;;;;;;5044436;28;20489;-70
2023/11/21 04:46:17;;;;;;;56.20;2.30;;;;;;;;;;5051221;28;20450;-70
2023/11/21 04:48:44;;;;;;;55.73;2.37;;;;;;;;;;5052038;28;20447;-72
2023/11/21 04:51:12;;;;;;;55.97;2.30;;;;;;;;;;5052170;28;20484;-71
2023/11/21 04:53:39;;;;;;;55.90;2.20;;;;;;;;;;5052212;28;20493;-72
2023/11/21 04:56:07;;;;;;;56.00;2.33;;;;;;;;;;5052140;28;20455;-72
2023/11/21 04:58:36;;;;;;;55.43;2.30;;;;;;;;;;5052093;28;20472;-72
2023/11/21 05:01:04;;;;;;;55.70;2.30;;;;;;;;;;5051997;28;20554;-72
2023/11/21 05:03:31;;;;;;;55.60;2.30;;;;;;;;;;5051892;28;20482;-70
2023/11/21 05:05:59;;;;;;;55.90;2.40;;;;;;;;;;5051830;28;20478;-70
2023/11/21 05:08:27;;;;;;;55.67;2.13;;;;;;;;;;5051453;28;20965;-72
2023/11/21 05:10:54;;;;;;;55.67;2.20;;;;;;;;;;5051890;28;20490;-72
2023/11/21 05:13:21;;;;;;;55.77;2.00;;;;;;;;;;5051546;28;21087;-72
2023/11/21 05:15:51;;;;;;;55.73;2.13;;;;;;;;;;5051735;28;20447;-72
2023/11/21 05:18:18;;;;;;;56.07;2.47;;;;;;;;;;5051676;28;20447;-72
2023/11/21 05:20:45;;;;;;;55.87;2.13;;;;;;;;;;5051426;28;20826;-72
2023/11/21 05:23:12;;;;;;;55.80;2.20;;;;;;;;;;5051630;28;20490;-70
2023/11/21 05:25:41;;;;;;;55.90;2.70;;;;;;;;;;5051634;28;20617;-73
2023/11/21 05:28:09;;;;;;;55.73;2.70;;;;;;;;;;5051488;28;20450;-71
2023/11/21 05:30:36;;;;;;;56.00;2.30;;;;;;;;;;5051191;28;20958;-71
2023/11/21 05:33:04;;;;;;;55.70;2.30;;;;;;;;;;5051438;28;20447;-71
2023/11/21 05:35:31;;;;;;;55.80;2.10;;;;;;;;;;5051123;28;20457;-71
2023/11/21 05:37:58;;;;;;;55.67;2.27;;;;;;;;;;5051613;28;20451;-71
2023/11/21 05:40:29;;;;;;;56.10;2.40;;;;;;;;;;5051418;28;20449;-71
2023/11/21 05:42:56;;;;;;;55.87;2.10;;;;;;;;;;5051133;28;20490;-71
2023/11/21 05:45:23;;;;;;;55.77;2.10;;;;;;;;;;5051373;28;21121;-71
2023/11/21 05:47:50;;;;;;;55.57;2.03;;;;;;;;;;5051247;28;20446;-72
2023/11/21 05:50:19;;;;;;;55.77;1.97;;;;;;;;;;5051440;28;20443;-72
2023/11/21 05:52:47;;;;;;;55.87;2.20;;;;;;;;;;5051094;28;20467;-72
2023/11/21 05:55:14;;;;;;;56.10;2.20;;;;;;;;;;5050971;28;20898;-71
2023/11/21 05:57:43;;;;;;;55.70;2.20;;;;;;;;;;5051096;28;20457;-71
2023/11/21 06:00:12;;;;;;;56.23;2.70;;;;;;;;;;5051007;28;20955;-71
2023/11/21 06:02:40;;;;;;;55.83;2.40;;;;;;;;;;5050889;28;20588;-71
2023/11/21 06:05:07;;;;;;;56.00;2.20;;;;;;;;;;5051409;28;20461;-71
2023/11/21 06:07:36;;;;;;;56.07;2.20;;;;;;;;;;5051129;28;20454;-71
2023/11/21 06:10:06;;;;;;;55.57;2.10;;;;;;;;;;5050838;28;20516;-71
2023/11/21 06:12:35;;;;;;;77.23;3.23;;;;;;;;;;5051193;28;20479;-71
2023/11/21 06:15:04;;;;;;;57.57;2.87;;;;;;;;;;5051064;28;20518;-71
2023/11/21 06:17:31;;;;;;;56.00;2.10;;;;;;;;;;5051005;28;20800;-72
2023/11/21 06:19:58;;;;;;;55.47;2.40;;;;;;;;;;5051272;28;20548;-72
2023/11/21 06:22:25;;;;;;;55.80;2.17;;;;;;;;;;5051090;28;20481;-72
2023/11/21 06:24:53;;;;;;;57.80;2.43;;;;;;;;;;5051099;28;20937;-72
2023/11/21 06:27:20;;;;;;;55.97;2.20;;;;;;;;;;5051322;28;20439;-72
2023/11/21 06:29:47;;;;;;;55.97;2.20;;;;;;;;;;5051038;28;20469;-72
2023/11/21 06:32:16;;;;;;;55.63;2.00;;;;;;;;;;5050981;28;20520;-72
2023/11/21 06:34:43;;;;;;;56.17;2.40;;;;;;;;;;5050636;28;20477;-72
2023/11/21 06:37:11;;;;;;;57.70;3.00;;;;;;;;;;5050998;28;20451;-72
2023/11/21 06:39:38;;;;;;;56.80;3.70;;;;;;;;;;5050568;28;20455;-72
2023/11/21 06:42:07;;;;;;;55.83;2.10;;;;;;;;;;5050573;28;20962;-72
2023/11/21 06:44:35;;;;;;;56.27;2.73;;;;;;;;;;5050575;28;20493;-72
2023/11/21 06:47:02;;;;;;;56.07;2.60;;;;;;;;;;5050518;28;20459;-72
2023/11/21 06:49:31;;;;;;;55.77;2.23;;;;;;;;;;5050647;28;20451;-72
2023/11/21 06:51:58;;;;;;;56.10;2.63;;;;;;;;;;5050539;28;20485;-72
2023/11/21 06:54:25;;;;;;;56.10;2.70;;;;;;;;;;5050602;28;20927;-72
2023/11/21 06:56:53;;;;;;;55.57;2.30;;;;;;;;;;5050526;28;20447;-72
2023/11/21 06:59:21;;;;;;;55.90;2.30;;;;;;;;;;5050608;28;20457;-72
2023/11/21 07:01:49;;;;;;;55.97;2.40;;;;;;;;;;5050427;28;20483;-72
2023/11/21 07:04:16;;;;;;;56.20;2.50;;;;;;;;;;5050368;28;20486;-72
2023/11/21 07:06:43;;;;;;;56.10;2.50;;;;;;;;;;5050411;28;20460;-72
2023/11/21 07:09:11;;;;;;;55.87;2.00;;;;;;;;;;5051990;28;20486;-72
2023/11/21 07:11:39;;;;;;;55.73;2.20;;;;;;;;;;5054467;28;20483;-72
2023/11/21 07:14:07;;;;;;;56.00;2.30;;;;;;;;;;5054367;28;20930;-72
2023/11/21 07:16:37;;;;;;;56.07;2.77;;;;;;;;;;5054493;28;20550;-72
2023/11/21 07:19:05;;;;;;;55.57;2.07;;;;;;;;;;5054174;28;20458;-72
2023/11/21 07:21:33;;;;;;;55.90;2.57;;;;;;;;;;5054106;28;20475;-72
2023/11/21 07:24:00;;;;;;;55.60;2.20;;;;;;;;;;5053705;28;20486;-72
2023/11/21 07:26:27;;;;;;;55.83;2.13;;;;;;;;;;5054031;28;20451;-72
2023/11/21 07:28:55;;;;;;;55.53;2.30;;;;;;;;;;5053687;28;20745;-71
2023/11/21 07:31:22;;;;;;;56.63;2.40;;;;;;;;;;5053538;28;20984;-71
2023/11/21 07:33:51;;;;;;;55.90;1.73;;;;;;;;;;5053264;28;20823;-71
2023/11/21 07:36:18;;;;;;;55.47;1.90;;;;;;;;;;5054148;28;20442;-71
2023/11/21 07:38:46;;;;;;;55.87;2.10;;;;;;;;;;5053147;28;21012;-71
2023/11/21 07:41:15;;;;;;;56.60;2.20;;;;;;;;;;5053683;28;20467;-71
2023/11/21 07:43:42;;;;;;;55.57;2.30;;;;;;;;;;5053512;28;20522;-71
2023/11/21 07:46:10;;;;;;;56.10;2.10;;;;;;;;;;5053548;28;20462;-71
2023/11/21 07:48:37;;;;;;;57.10;3.77;;;;;;;;;;5052937;28;20447;-71
2023/11/21 07:51:06;;;;;;;57.00;3.63;;;;;;;;;;5050727;28;20476;-72
2023/11/21 07:53:34;;;;;;;56.03;3.20;;;;;;;;;;5052974;28;20458;-72
2023/11/21 07:56:04;;;;;;;56.00;2.70;;;;;;;;;;5053036;28;20451;-71
2023/11/21 07:58:33;;;;;;;56.27;2.60;;;;;;;;;;5052743;28;20831;-72
2023/11/21 08:01:00;;;;;;;55.90;3.10;;;;;;;;;;5044984;28;20569;-72
2023/11/21 08:03:29;;;;;;;57.27;2.70;;;;;;;;;;5052457;28;20490;-72
2023/11/21 08:05:56;;;;;;;57.53;3.03;;;;;;;;;;5052945;28;20487;-71
2023/11/21 08:08:24;;;;;;;55.80;2.37;;;;;;;;;;5052707;28;20454;-72
2023/11/21 08:10:56;;;;;;;56.07;2.67;;;;;;;;;;5052449;28;20455;-72
2023/11/21 08:13:23;;;;;;;56.57;2.57;;;;;;;;;;5052582;28;20887;-71
2023/11/21 08:15:50;;;;;;;55.77;1.90;;;;;;;;;;5052394;28;20462;-72
2023/11/21 08:18:17;;;;;;;55.47;2.20;;;;;;;;;;5052312;28;20456;-73
2023/11/21 08:20:47;;;;;;;55.60;2.53;;;;;;;;;;5052328;28;20443;-72
2023/11/21 08:23:15;;;;;;;56.87;2.20;;;;;;;;;;5052248;28;20931;-72
2023/11/21 08:25:43;;;;;;;55.73;2.20;;;;;;;;;;5052432;28;20492;-71
2023/11/21 08:28:10;;;;;;;55.57;2.40;;;;;;;;;;5052204;28;20823;-72
2023/11/21 08:30:37;;;;;;;56.87;3.57;;;;;;;;;;5052109;28;20866;-70
2023/11/21 08:33:05;;;;;;;56.70;2.93;;;;;;;;;;5052349;28;20449;-70
2023/11/21 08:35:33;;;;;;;56.10;2.70;;;;;;;;;;5052434;28;20450;-70
2023/11/21 08:38:00;;;;;;;56.20;2.67;;;;;;;;;;5052272;28;20461;-70
2023/11/21 08:40:27;;;;;;;55.70;2.07;;;;;;;;;;5052354;28;20828;-71
2023/11/21 08:42:55;;;;;;;55.80;2.20;;;;;;;;;;5051639;28;20993;-70
2023/11/21 08:45:22;;;;;;;56.07;2.30;;;;;;;;;;5052009;28;20490;-70
2023/11/21 08:47:50;;;;;;;55.27;2.00;;;;;;;;;;5052270;28;20452;-70
2023/11/21 08:50:17;;;;;;;55.27;2.00;;;;;;;;;;5051991;28;20512;-71
2023/11/21 08:52:45;;;;;;;55.47;2.40;;;;;;;;;;5051828;28;20474;-70
2023/11/21 08:55:13;;;;;;;56.00;2.30;;;;;;;;;;5051877;28;20531;-71
2023/11/21 08:57:41;;;;;;;56.70;2.70;;;;;;;;;;5051627;28;20546;-71
2023/11/21 09:00:11;;;;;;;54.87;1.97;;;;;;;;;;5051992;28;20497;-70
2023/11/21 09:02:38;;;;;;;55.53;1.93;;;;;;;;;;5051968;28;20588;-70
2023/11/21 09:05:07;;;;;;;55.53;1.87;;;;;;;;;;5051681;28;20518;-71
2023/11/21 09:07:34;;;;;;;55.80;2.20;;;;;;;;;;5051688;28;21185;-71
2023/11/21 09:10:01;;;;;;;55.80;2.00;;;;;;;;;;5051388;28;20465;-71
2023/11/21 09:12:28;;;;;;;56.30;2.63;;;;;;;;;;5051384;28;20478;-71
2023/11/21 09:14:55;;;;;;;56.07;2.30;;;;;;;;;;5051288;28;20455;-70
2023/11/21 09:17:24;;;;;;;56.20;2.10;;;;;;;;;;5051446;28;20448;-71
2023/11/21 09:19:51;;;;;;;55.97;2.10;;;;;;;;;;5051373;28;20954;-71
2023/11/21 09:22:18;;;;;;;55.07;1.90;;;;;;;;;;5051407;28;20471;-71
2023/11/21 09:24:45;;;;;;;55.60;2.20;;;;;;;;;;5050876;28;20483;-71
2023/11/21 09:27:12;;;;;;;55.30;1.80;;;;;;;;;;5051275;28;20456;-71
2023/11/21 09:29:39;;;;;;;55.37;1.90;;;;;;;;;;5051338;28;20450;-70
2023/11/21 09:32:08;;;;;;;55.47;2.80;;;;;;;;;;5050616;28;20476;-71
2023/11/21 09:34:38;;;;;;;55.33;1.90;;;;;;;;;;5051324;28;20502;-71
2023/11/21 09:37:06;;;;;;;55.60;2.00;;;;;;;;;;5043115;28;20500;-70
2023/11/21 09:39:34;;;;;;;55.67;1.90;;;;;;;;;;5051013;28;20488;-71
2023/11/21 09:42:06;;;;;;;55.70;1.83;;;;;;;;;;5050964;28;21077;-70
2023/11/21 09:44:36;;;;;;;55.50;1.80;;;;;;;;;;5051017;28;20579;-71
2023/11/21 09:47:04;;;;;;;55.33;1.80;;;;;;;;;;5042872;28;20474;-71
2023/11/21 09:49:34;;;;;;;56.00;2.10;;;;;;;;;;5050880;28;20538;-72
2023/11/21 09:52:04;;;;;;;55.70;1.80;;;;;;;;;;5051078;28;20475;-72
2023/11/21 09:54:32;;;;;;;55.13;1.90;;;;;;;;;;5050824;28;20450;-72
2023/11/21 09:56:59;;;;;;;55.77;2.07;;;;;;;;;;5050815;28;20456;-72
2023/11/21 09:59:31;;;;;;;55.80;1.90;;;;;;;;;;5050657;28;20459;-72
2023/11/21 10:01:59;;;;;;;55.50;1.87;;;;;;;;;;5050627;28;20475;-72
2023/11/21 10:04:27;;;;;;;55.27;1.80;;;;;;;;;;5050298;28;20496;-72
2023/11/21 10:06:54;;;;;;;55.27;1.90;;;;;;;;;;5050761;28;20447;-72
2023/11/21 10:09:24;;;;;;;55.70;1.97;;;;;;;;;;5050636;28;20466;-72
2023/11/21 10:11:52;;;;;;;55.37;2.30;;;;;;;;;;5050571;28;21016;-72
2023/11/21 10:14:21;;;;;;;55.70;1.87;;;;;;;;;;5050719;28;20455;-73
2023/11/21 10:16:50;;;;;;;55.87;2.50;;;;;;;;;;5050488;28;20494;-72
2023/11/21 10:19:18;;;;;;;55.60;1.77;;;;;;;;;;5050629;28;20483;-72
2023/11/21 10:21:45;;;;;;;54.70;1.90;;;;;;;;;;5050559;28;20474;-72
2023/11/21 10:24:13;;;;;;;55.83;2.10;;;;;;;;;;5050357;28;20496;-72
2023/11/21 10:26:41;;;;;;;55.93;2.03;;;;;;;;;;5050770;28;20462;-72
2023/11/21 10:29:08;;;;;;;55.27;1.70;;;;;;;;;;5050447;28;20495;-71
2023/11/21 10:31:36;;;;;;;56.93;2.20;;;;;;;;;;5050281;28;20525;-72
2023/11/21 10:34:21;;;;;;;55.17;1.87;;;;;;;;;;5050606;28;20950;-72
2023/11/21 10:36:48;;;;;;;55.63;1.93;;;;;;;;;;5050627;28;20546;-72
2023/11/21 10:39:18;;;;;;;55.73;2.07;;;;;;;;;;5050365;28;20544;-72
2023/11/21 10:41:47;;;;;;;55.80;1.87;;;;;;;;;;5050274;28;20530;-71
2023/11/21 10:44:20;;;;;;;56.53;2.33;;;;;;;;;;5054214;28;20496;-71
2023/11/21 10:46:50;;;;;;;55.70;1.87;;;;;;;;;;5054529;28;20455;-72
2023/11/21 10:49:17;;;;;;;56.60;2.37;;;;;;;;;;5054180;28;20457;-71
2023/11/21 10:51:45;;;;;;;55.07;1.90;;;;;;;;;;5054317;28;20471;-71
2023/11/21 10:54:12;;;;;;;55.33;2.20;;;;;;;;;;5054193;28;20443;-72
2023/11/21 10:56:42;;;;;;;55.20;1.83;;;;;;;;;;5054505;28;20447;-69
2023/11/21 10:59:14;;;;;;;55.63;1.80;;;;;;;;;;5054451;28;20799;-72
2023/11/21 11:01:43;;;;;;;55.77;1.90;;;;;;;;;;5054254;28;20474;-72
2023/11/21 11:04:14;;;;;;;55.67;1.90;;;;;;;;;;5054134;28;20446;-73
2023/11/21 11:06:42;;;;;;;55.30;1.73;;;;;;;;;;5054204;28;20466;-72
2023/11/21 11:09:12;;;;;;;55.07;1.90;;;;;;;;;;5053645;28;20450;-72
2023/11/21 11:11:40;;;;;;;55.43;2.13;;;;;;;;;;5053923;28;20990;-72
2023/11/21 11:14:08;;;;;;;55.63;2.20;;;;;;;;;;5053947;28;20469;-72
2023/11/21 11:16:37;;;;;;;55.73;2.00;;;;;;;;;;5053866;28;20455;-71
2023/11/21 11:19:04;;;;;;;54.70;1.93;;;;;;;;;;5053749;28;20464;-71
2023/11/21 11:21:36;;;;;;;55.67;1.93;;;;;;;;;;5053436;28;20473;-72
2023/11/21 11:24:11;;;;;;;55.60;2.03;;;;;;;;;;5053930;28;20830;-73
2023/11/21 11:26:44;;;;;;;55.17;2.07;;;;;;;;;;5054170;28;20458;-73
2023/11/21 11:29:16;;;;;;;55.23;2.00;;;;;;;;;;5053709;28;20447;-73
2023/11/21 11:31:51;;;;;;;55.60;2.00;;;;;;;;;;5053738;28;20481;-73
2023/11/21 11:34:23;;;;;;;55.70;2.00;;;;;;;;;;5046569;28;20539;-72
2023/11/21 11:36:50;;;;;;;55.50;2.00;;;;;;;;;;5053544;28;20443;-72
2023/11/21 11:39:30;;;;;;;55.00;1.80;;;;;;;;;;5053252;28;20940;-73
2023/11/21 11:41:58;;;;;;;55.80;1.80;;;;;;;;;;5053363;28;20489;-72
2023/11/21 11:44:59;;;;;;;55.70;2.00;;;;;;;;;;5053628;28;20985;-72
2023/11/21 11:47:32;;;;;;;56.00;2.30;;;;;;;;;;5009093;28;20446;-72
2023/11/21 11:50:00;;;;;;;55.40;1.70;;;;;;;;;;5010923;28;20473;-73
2023/11/21 11:52:36;;;;;;;55.37;2.03;;;;;;;;;;5011050;28;20472;-72
2023/11/21 11:55:04;;;;;;;55.90;2.10;;;;;;;;;;5009744;28;20455;-72
2023/11/21 11:57:32;;;;;;;55.63;1.70;;;;;;;;;;5010332;28;20453;-72
2023/11/21 12:00:10;;;;;;;56.20;2.30;;;;;;;;;;5011016;28;20453;-73
2023/11/21 12:02:39;;;;;;;57.50;3.90;;;;;;;;;;5011051;28;20472;-72
2023/11/21 12:05:10;;;;;;;55.87;2.10;;;;;;;;;;5010621;28;20539;-72
2023/11/21 12:07:45;;;;;;;55.33;1.90;;;;;;;;;;5010893;28;20452;-73
2023/11/21 12:10:14;;;;;;;55.60;2.20;;;;;;;;;;5010650;28;20451;-72
2023/11/21 12:12:43;;;;;;;55.13;1.80;;;;;;;;;;5010710;28;20474;-72
2023/11/21 12:15:10;;;;;;;55.57;1.67;;;;;;;;;;5010682;28;20442;-72
2023/11/21 12:17:39;;;;;;;55.90;2.00;;;;;;;;;;5018920;28;20444;-72
2023/11/21 12:20:14;;;;;;;55.50;2.20;;;;;;;;;;5052687;28;20451;-73
2023/11/21 12:22:41;;;;;;;55.20;2.00;;;;;;;;;;5052665;28;20469;-72
2023/11/21 12:25:08;;;;;;;55.80;2.00;;;;;;;;;;5052756;28;20491;-72
2023/11/21 12:27:36;;;;;;;55.37;1.90;;;;;;;;;;5052726;28;20447;-73
2023/11/21 12:30:03;;;;;;;55.50;1.87;;;;;;;;;;5052414;28;20451;-73
2023/11/21 12:32:30;;;;;;;55.60;2.00;;;;;;;;;;5052255;28;20479;-73
2023/11/21 12:34:58;;;;;;;55.67;2.00;;;;;;;;;;5052433;28;20450;-72
2023/11/21 12:37:26;;;;;;;55.57;1.93;;;;;;;;;;5052420;28;20807;-73
2023/11/21 12:39:57;;;;;;;55.90;2.20;;;;;;;;;;5052219;28;20501;-73
2023/11/21 12:42:25;;;;;;;55.57;1.90;;;;;;;;;;5052360;28;20478;-73
2023/11/21 12:45:07;;;;;;;55.80;1.70;;;;;;;;;;5051838;28;20482;-73
2023/11/21 12:47:36;;;;;;;55.90;2.20;;;;;;;;;;5052257;28;20831;-71
2023/11/21 12:50:06;;;;;;;55.77;2.00;;;;;;;;;;5052074;28;20455;-71
2023/11/21 12:52:33;;;;;;;55.43;1.70;;;;;;;;;;5052081;28;20850;-71
2023/11/21 12:55:00;;;;;;;55.80;1.87;;;;;;;;;;5051652;28;20451;-71
2023/11/21 12:57:28;;;;;;;55.67;2.00;;;;;;;;;;5052206;28;20804;-71
2023/11/21 12:59:58;;;;;;;56.00;2.10;;;;;;;;;;5051719;28;20482;-71
2023/11/21 13:02:28;;;;;;;56.00;1.90;;;;;;;;;;5052020;28;20850;-72
2023/11/21 13:04:57;;;;;;;55.67;1.90;;;;;;;;;;5051456;28;20495;-72
2023/11/21 13:07:26;;;;;;;55.90;1.90;;;;;;;;;;5050991;28;20874;-72
2023/11/21 13:09:54;;;;;;;55.90;2.03;;;;;;;;;;5051499;28;20528;-72
2023/11/21 13:12:25;;;;;;;55.93;1.97;;;;;;;;;;5051891;28;20463;-72
2023/11/21 13:14:52;;;;;;;55.70;2.07;;;;;;;;;;5051854;28;20455;-72
2023/11/21 13:17:19;;;;;;;56.00;2.13;;;;;;;;;;5051654;28;20913;-72
2023/11/21 13:19:46;;;;;;;55.60;1.73;;;;;;;;;;5051528;28;20451;-72
2023/11/21 13:22:13;;;;;;;55.97;1.80;;;;;;;;;;5051491;28;20474;-72
2023/11/21 13:24:42;;;;;;;56.50;2.53;;;;;;;;;;5051664;28;20467;-72
2023/11/21 13:27:10;;;;;;;56.00;2.07;;;;;;;;;;5051700;28;20460;-72
2023/11/21 13:29:37;;;;;;;55.67;2.00;;;;;;;;;;5051534;28;20451;-72
2023/11/21 13:32:06;;;;;;;56.10;2.10;;;;;;;;;;5051349;28;20471;-72
2023/11/21 13:34:36;;;;;;;55.97;1.90;;;;;;;;;;5051550;28;20487;-72
2023/11/21 13:37:07;;;;;;;56.10;2.23;;;;;;;;;;5051468;28;20452;-72
2023/11/21 13:39:35;;;;;;;56.10;2.00;;;;;;;;;;5051404;28;20452;-72
2023/11/21 13:42:05;;;;;;;55.73;1.90;;;;;;;;;;5051347;28;20474;-72
2023/11/21 13:44:38;;;;;;;55.90;2.10;;;;;;;;;;5051195;28;20482;-72
2023/11/21 13:47:06;;;;;;;55.70;1.97;;;;;;;;;;5051050;28;20498;-72
2023/11/21 13:49:40;;;;;;;55.43;1.80;;;;;;;;;;5051293;28;20456;-72
2023/11/21 13:52:07;;;;;;;55.07;2.13;;;;;;;;;;5051227;28;20478;-72
2023/11/21 13:54:34;;;;;;;55.57;2.10;;;;;;;;;;5051013;28;20462;-72
2023/11/21 13:57:03;;;;;;;55.70;1.83;;;;;;;;;;5051103;28;20454;-72
2023/11/21 13:59:32;;;;;;;56.10;2.00;;;;;;;;;;5051678;28;20456;-72
2023/11/21 14:01:59;;;;;;;55.70;2.00;;;;;;;;;;5050835;28;20476;-72
2023/11/21 14:04:49;;;;;;;56.00;1.90;;;;;;;;;;5050939;28;20451;-72
2023/11/21 14:07:26;;;;;;;55.67;2.07;;;;;;;;;;5051378;28;20446;-72
2023/11/21 14:09:53;;;;;;;57.57;2.93;;;;;;;;;;5050937;28;20463;-72
2023/11/21 14:12:21;;;;;;;55.90;2.10;;;;;;;;;;5050872;28;20471;-72
2023/11/21 14:14:49;;;;;;;56.30;2.20;;;;;;;;;;5051820;28;20479;-72
2023/11/21 14:17:16;;;;;;;55.83;2.00;;;;;;;;;;5053480;28;20958;-72
2023/11/21 14:19:43;;;;;;;55.80;1.97;;;;;;;;;;5058555;28;20537;-72
2023/11/21 14:22:11;;;;;;;55.57;1.93;;;;;;;;;;5058183;28;20878;-72
2023/11/21 14:24:43;;;;;;;56.10;2.10;;;;;;;;;;5057779;28;20781;-72
2023/11/21 14:27:11;;;;;;;55.47;2.00;;;;;;;;;;5057792;28;20496;-72
2023/11/21 14:29:39;;;;;;;55.70;2.07;;;;;;;;;;5057656;28;20446;-72
2023/11/21 14:32:08;;;;;;;55.67;1.70;;;;;;;;;;5057365;28;20477;-72
2023/11/21 14:34:36;;;;;;;55.80;1.80;;;;;;;;;;5057665;28;20457;-73
2023/11/21 14:37:03;;;;;;;56.50;3.40;;;;;;;;;;5057505;28;20556;-73
2023/11/21 14:39:34;;;;;;;55.53;2.30;;;;;;;;;;5057681;28;20469;-73